Time;durP1;ratioP1;P1;durP2;ratioP2;P2;SDS_P1;SDS_P2;PMS_P1;PMS_P2;Temp;Humidity;BMP_temperature;BMP_pressure;BME280_temperature;BME280_humidity;BME280_pressure;Samples;Min_cycle;Max_cycle;Signal;HPM_P1;HPM_P2
2021/06/13 00:01:29;;;;;;;4.70;2.00;;;;;;;23.27;44.12;102586.47;5053414;28;20032;-56
2021/06/13 00:03:55;;;;;;;6.05;2.45;;;;;;;23.27;43.86;102585.63;5053238;28;20021;-57
2021/06/13 00:06:20;;;;;;;4.45;2.40;;;;;;;23.26;44.15;102591.94;5052367;28;20530;-56
2021/06/13 00:08:46;;;;;;;5.47;2.20;;;;;;;23.25;44.20;102591.06;5053368;28;20420;-57
2021/06/13 00:11:12;;;;;;;4.45;2.10;;;;;;;23.24;44.02;102594.72;5052809;28;20017;-56
2021/06/13 00:13:37;;;;;;;4.47;2.47;;;;;;;23.24;44.18;102593.84;5052210;28;20029;-55
2021/06/13 00:16:03;;;;;;;6.95;2.70;;;;;;;23.23;43.99;102593.00;5052901;28;20063;-55
2021/06/13 00:18:29;;;;;;;4.20;2.17;;;;;;;23.23;44.03;102592.16;5052893;28;20060;-56
2021/06/13 00:20:55;;;;;;;4.95;2.40;;;;;;;23.22;44.07;102585.13;5052511;28;20473;-55
2021/06/13 00:23:20;;;;;;;4.65;2.00;;;;;;;23.22;44.30;102590.47;5052785;28;20107;-56
2021/06/13 00:25:46;;;;;;;5.13;2.13;;;;;;;23.20;44.25;102587.09;5035282;28;20021;-56
2021/06/13 00:28:12;;;;;;;5.63;2.38;;;;;;;23.20;43.90;102593.25;5052073;28;20388;-56
2021/06/13 00:30:37;;;;;;;4.57;2.00;;;;;;;23.20;43.92;102595.06;5052828;28;20024;-56
2021/06/13 00:33:04;;;;;;;5.43;2.60;;;;;;;23.18;44.16;102588.03;5052285;28;20029;-56
2021/06/13 00:35:29;;;;;;;6.00;2.22;;;;;;;23.18;43.93;102592.50;5052167;28;20490;-56
2021/06/13 00:38:00;;;;;;;4.70;2.03;;;;;;;23.17;43.96;102596.13;5053014;28;20099;-56
2021/06/13 00:40:27;;;;;;;6.03;2.30;;;;;;;23.16;43.98;102594.41;5051917;28;20379;-56
2021/06/13 00:42:53;;;;;;;5.32;2.20;;;;;;;23.16;43.92;102594.41;5052655;28;20017;-57
2021/06/13 00:45:19;;;;;;;4.43;2.35;;;;;;;23.17;44.03;102601.44;5052395;28;20029;-56
2021/06/13 00:47:45;;;;;;;4.65;2.13;;;;;;;23.14;43.91;102602.50;5051617;28;20407;-56
2021/06/13 00:50:16;;;;;;;5.15;2.20;;;;;;;23.14;43.92;102597.19;5052278;28;20037;-57
2021/06/13 00:52:42;;;;;;;5.07;2.30;;;;;;;23.10;43.95;102598.41;5052614;28;20029;-56
2021/06/13 00:55:08;;;;;;;5.57;2.15;;;;;;;23.13;44.08;102602.63;5051375;28;20028;-57
2021/06/13 00:57:34;;;;;;;4.43;2.38;;;;;;;23.13;44.02;102607.94;5052686;28;20108;-55
2021/06/13 00:59:59;;;;;;;5.00;2.38;;;;;;;23.12;44.00;102611.59;5052221;28;20104;-56
2021/06/13 01:02:24;;;;;;;4.63;2.30;;;;;;;23.12;44.02;102607.09;5051179;28;20028;-55
2021/06/13 01:04:50;;;;;;;4.40;2.40;;;;;;;23.11;43.74;102612.53;5052573;28;20097;-56
2021/06/13 01:07:49;;;;;;;5.57;2.30;;;;;;;23.10;43.76;102606.38;5051987;28;20037;-56
2021/06/13 01:10:36;;;;;;;4.82;2.20;;;;;;;23.11;43.76;102604.56;5036923;28;20048;-58
2021/06/13 01:13:10;;;;;;;4.35;2.10;;;;;;;23.09;43.76;102607.34;5052411;28;20376;-54
2021/06/13 01:15:42;;;;;;;4.80;2.20;;;;;;;23.09;43.84;102601.19;5051267;28;20077;-57
2021/06/13 01:18:25;;;;;;;5.47;2.40;;;;;;;23.09;43.70;102595.88;5051787;28;20416;-56
2021/06/13 01:21:11;;;;;;;4.93;2.40;;;;;;;23.08;43.78;102600.34;5051864;28;20017;-55
2021/06/13 01:23:51;;;;;;;4.68;1.95;;;;;;;23.07;43.67;102598.59;5051526;28;20107;-55
2021/06/13 01:26:34;;;;;;;4.95;2.50;;;;;;;23.07;43.88;102600.44;5051890;28;20039;-56
2021/06/13 01:29:08;;;;;;;6.55;2.60;;;;;;;23.06;43.78;102598.72;5051874;28;20024;-55
2021/06/13 01:31:45;;;;;;;4.80;2.40;;;;;;;23.05;43.57;102603.19;5050195;28;20044;-56
2021/06/13 01:34:15;;;;;;;4.82;2.38;;;;;;;23.05;43.85;102594.34;5051444;28;20570;-56
2021/06/13 01:36:41;;;;;;;5.00;2.47;;;;;;;23.03;43.65;102599.78;5050993;28;20024;-56
2021/06/13 01:39:13;;;;;;;5.68;2.40;;;;;;;23.04;43.67;102601.50;5050595;28;20112;-56
2021/06/13 01:42:02;;;;;;;5.95;2.78;;;;;;;23.02;43.65;102608.75;5051747;28;20025;-56
2021/06/13 01:44:28;;;;;;;4.78;2.30;;;;;;;23.03;43.40;102601.59;5040372;28;20465;-56
2021/06/13 01:46:55;;;;;;;5.97;2.50;;;;;;;23.03;43.59;102604.25;5051870;28;20087;-55
2021/06/13 01:49:22;;;;;;;5.50;2.30;;;;;;;23.01;43.58;102594.56;5051524;28;20040;-56
2021/06/13 01:51:48;;;;;;;5.75;2.50;;;;;;;22.99;43.77;102598.34;5050886;28;20025;-56
2021/06/13 01:54:15;;;;;;;4.63;2.25;;;;;;;23.00;43.63;102594.69;5051325;28;20075;-57
2021/06/13 01:56:48;;;;;;;5.65;2.65;;;;;;;22.99;43.64;102598.34;5051942;28;20048;-56
2021/06/13 01:59:16;;;;;;;5.72;2.75;;;;;;;22.99;43.62;102595.69;5050742;28;20033;-56
2021/06/13 02:01:43;;;;;;;4.82;2.38;;;;;;;22.98;43.49;102599.28;5051677;28;20029;-56
2021/06/13 02:04:10;;;;;;;4.70;2.30;;;;;;;22.98;43.64;102596.63;5051133;28;20539;-54
2021/06/13 02:06:38;;;;;;;5.18;2.40;;;;;;;22.96;43.43;102594.09;5050809;28;20029;-54
2021/06/13 02:09:06;;;;;;;5.53;2.70;;;;;;;22.97;43.51;102597.56;5051560;28;20020;-56
2021/06/13 02:11:33;;;;;;;5.28;2.53;;;;;;;22.94;43.60;102598.69;5051448;28;20025;-56
2021/06/13 02:14:00;;;;;;;6.20;2.90;;;;;;;22.94;43.23;102597.81;5050536;28;20588;-56
2021/06/13 02:16:25;;;;;;;6.45;2.38;;;;;;;22.93;43.52;102594.31;5051374;28;20033;-57
2021/06/13 02:18:54;;;;;;;5.70;2.30;;;;;;;22.92;43.66;102595.28;5051283;28;20409;-55
2021/06/13 02:21:20;;;;;;;4.72;2.33;;;;;;;22.92;43.14;102597.94;5051078;28;20056;-56
2021/06/13 02:23:46;;;;;;;5.75;2.60;;;;;;;22.92;43.47;102594.41;5051442;28;20032;-54
2021/06/13 02:26:14;;;;;;;5.30;2.58;;;;;;;22.91;43.49;102590.09;5050513;28;20021;-55
2021/06/13 02:28:43;;;;;;;4.95;2.67;;;;;;;22.89;43.50;102590.19;5051549;28;20029;-55
2021/06/13 02:31:09;;;;;;;5.57;2.40;;;;;;;22.90;43.43;102599.00;5050960;28;20057;-57
2021/06/13 02:33:39;;;;;;;5.68;2.70;;;;;;;22.89;43.41;102592.88;5050504;28;20029;-57
2021/06/13 02:36:05;;;;;;;4.70;2.38;;;;;;;22.89;43.40;102594.66;5050899;28;20032;-55
2021/06/13 02:38:31;;;;;;;4.47;2.45;;;;;;;22.87;43.41;102594.75;5051095;28;20437;-58
2021/06/13 02:40:59;;;;;;;5.43;2.50;;;;;;;22.88;43.34;102599.13;5050570;28;20029;-56
2021/06/13 02:43:24;;;;;;;5.00;2.58;;;;;;;22.87;43.44;102602.75;5050799;28;20538;-56
2021/06/13 02:45:50;;;;;;;5.80;2.58;;;;;;;22.87;43.31;102610.72;5051338;28;20028;-56
2021/06/13 02:48:16;;;;;;;5.38;2.70;;;;;;;22.84;43.39;102602.97;5052472;28;20024;-55
2021/06/13 02:50:42;;;;;;;5.20;2.63;;;;;;;22.85;43.21;102599.34;5054723;28;20024;-57
2021/06/13 02:53:30;;;;;;;6.35;2.78;;;;;;;22.83;43.04;102594.16;5054645;28;20020;-57
2021/06/13 02:56:01;;;;;;;5.18;2.75;;;;;;;22.85;43.30;102603.84;5054984;28;20108;-56
2021/06/13 02:58:33;;;;;;;4.45;2.50;;;;;;;22.85;43.25;102602.00;5054889;28;20031;-56
2021/06/13 03:00:59;;;;;;;4.50;2.55;;;;;;;22.84;43.32;102610.94;5054542;28;20112;-55
2021/06/13 03:03:32;;;;;;;5.13;2.55;;;;;;;22.83;43.21;102606.59;5053813;28;20020;-56
2021/06/13 03:05:58;;;;;;;5.00;2.10;;;;;;;22.82;43.13;102608.38;5054832;28;20021;-56
2021/06/13 03:08:24;;;;;;;6.20;2.40;;;;;;;22.80;43.33;102601.50;5053601;28;20063;-57
2021/06/13 03:10:52;;;;;;;5.05;2.70;;;;;;;22.82;43.18;102603.06;5054854;28;20388;-57
2021/06/13 03:13:21;;;;;;;4.63;2.55;;;;;;;22.82;43.22;102591.59;5055329;28;20086;-56
2021/06/13 03:15:47;;;;;;;5.20;2.60;;;;;;;22.82;43.05;102599.56;5054463;28;20045;-54
2021/06/13 03:18:14;;;;;;;4.82;2.30;;;;;;;22.81;43.17;102592.56;5054090;28;20033;-56
2021/06/13 03:20:39;;;;;;;5.07;2.30;;;;;;;22.79;43.16;102590.00;5054169;28;20102;-56
2021/06/13 03:23:05;;;;;;;5.55;2.55;;;;;;;22.78;43.16;102591.00;5053083;28;20032;-56
2021/06/13 03:25:31;;;;;;;5.43;2.80;;;;;;;22.78;43.26;102593.66;5036295;28;20021;-56
2021/06/13 03:27:57;;;;;;;5.07;2.70;;;;;;;22.77;43.17;102593.75;5054059;28;20096;-56
2021/06/13 03:30:23;;;;;;;7.50;2.95;;;;;;;22.77;42.96;102597.25;5053473;28;20025;-56
2021/06/13 03:32:48;;;;;;;4.35;2.38;;;;;;;22.77;42.98;102599.91;5054186;28;20082;-57
2021/06/13 03:35:14;;;;;;;5.88;2.65;;;;;;;22.74;43.03;102594.81;5053747;28;20457;-55
2021/06/13 03:37:41;;;;;;;4.85;2.47;;;;;;;22.74;43.42;102601.97;5053408;28;20108;-56
2021/06/13 03:40:09;;;;;;;5.25;2.58;;;;;;;22.75;43.04;102604.50;5053537;28;20442;-56
2021/06/13 03:42:35;;;;;;;5.32;2.75;;;;;;;22.74;43.14;102613.44;5053562;28;20029;-57
2021/06/13 03:45:03;;;;;;;7.00;3.20;;;;;;;22.74;43.06;102612.59;5053209;28;20386;-55
2021/06/13 03:47:31;;;;;;;6.35;2.53;;;;;;;22.74;43.29;102620.56;5053768;28;20025;-55
2021/06/13 03:49:57;;;;;;;4.72;2.50;;;;;;;22.72;43.05;102615.38;5053600;28;20598;-56
2021/06/13 03:52:23;;;;;;;5.10;2.70;;;;;;;22.73;43.21;102622.38;5052536;28;20028;-57
2021/06/13 03:54:49;;;;;;;6.28;2.53;;;;;;;22.73;43.13;102625.03;5053521;28;20036;-56
2021/06/13 03:57:15;;;;;;;6.70;2.70;;;;;;;22.71;43.13;102626.94;5053050;28;20028;-56
2021/06/13 03:59:43;;;;;;;5.38;2.50;;;;;;;22.71;42.87;102623.44;5052300;28;20456;-55
2021/06/13 04:02:10;;;;;;;5.22;2.60;;;;;;;22.72;43.22;102630.47;5053269;28;20048;-55
2021/06/13 04:04:40;;;;;;;4.60;2.22;;;;;;;22.71;43.04;102634.91;5053052;28;20052;-53
2021/06/13 04:07:07;;;;;;;5.43;2.50;;;;;;;22.68;43.09;102629.81;5053210;28;20025;-55
2021/06/13 04:09:33;;;;;;;6.47;2.72;;;;;;;22.70;43.14;102643.88;5053193;28;20025;-55
2021/06/13 04:11:58;;;;;;;5.63;2.58;;;;;;;22.70;43.06;102643.88;5052692;28;20028;-57
2021/06/13 04:14:25;;;;;;;4.55;2.40;;;;;;;22.69;42.94;102639.50;5052837;28;20033;-56
2021/06/13 04:16:51;;;;;;;4.65;2.67;;;;;;;22.69;43.00;102638.66;5052934;28;20021;-56
2021/06/13 04:19:19;;;;;;;6.15;2.70;;;;;;;22.69;42.89;102649.28;5052058;28;20021;-57
2021/06/13 04:21:45;;;;;;;5.22;2.60;;;;;;;22.69;42.99;102649.28;5053100;28;20029;-55
2021/06/13 04:24:16;;;;;;;5.53;2.45;;;;;;;22.68;43.12;102647.59;5052616;28;20025;-56
2021/06/13 04:26:42;;;;;;;6.68;2.35;;;;;;;22.68;43.08;102653.75;5052185;28;20017;-56
2021/06/13 04:29:09;;;;;;;5.97;2.42;;;;;;;22.69;42.94;102658.09;5052642;28;20078;-57
2021/06/13 04:31:34;;;;;;;5.30;2.65;;;;;;;22.68;43.13;102652.91;5052905;28;20091;-55
2021/06/13 04:33:59;;;;;;;5.45;2.60;;;;;;;22.67;43.15;102652.06;5052166;28;20370;-55
2021/06/13 04:36:25;;;;;;;5.50;2.60;;;;;;;22.69;43.00;102659.94;5052425;28;20431;-57
2021/06/13 04:38:51;;;;;;;4.32;2.22;;;;;;;22.68;43.11;102663.53;5052641;28;20465;-55
2021/06/13 04:41:19;;;;;;;4.95;2.50;;;;;;;22.68;43.14;102669.69;5051894;28;20059;-55
2021/06/13 04:43:49;;;;;;;6.13;2.80;;;;;;;22.68;42.99;102669.69;5052597;28;20064;-55
2021/06/13 04:46:21;;;;;;;5.50;2.72;;;;;;;22.68;43.08;102671.50;5052035;28;20115;-55
2021/06/13 04:48:46;;;;;;;5.10;2.58;;;;;;;22.68;42.97;102674.16;5051612;28;20025;-55
2021/06/13 04:51:12;;;;;;;5.22;2.67;;;;;;;22.67;43.00;102675.97;5051843;28;20500;-56
2021/06/13 04:53:53;;;;;;;5.00;2.50;;;;;;;22.66;43.09;102676.94;5051422;28;20032;-55
2021/06/13 04:56:41;;;;;;;6.30;2.80;;;;;;;22.67;43.05;102683.94;5052219;28;20029;-56
2021/06/13 04:59:09;;;;;;;5.13;2.70;;;;;;;22.66;42.95;102682.25;5052021;28;20377;-55
2021/06/13 05:01:36;;;;;;;5.90;2.55;;;;;;;22.67;42.97;102689.25;5051513;28;20025;-55
2021/06/13 05:04:02;;;;;;;5.57;2.92;;;;;;;22.66;43.14;102684.91;5052017;28;20131;-56
2021/06/13 05:06:27;;;;;;;5.35;2.38;;;;;;;22.66;43.09;102690.22;5052058;28;20109;-56
2021/06/13 05:08:53;;;;;;;5.50;2.75;;;;;;;22.65;43.22;102693.81;5051543;28;20033;-57
2021/06/13 05:11:19;;;;;;;5.40;2.65;;;;;;;22.65;43.06;102693.81;5051333;28;20025;-57
2021/06/13 05:13:47;;;;;;;5.63;2.63;;;;;;;22.67;42.97;102694.59;5051807;28;20491;-56
2021/06/13 05:16:12;;;;;;;5.38;2.60;;;;;;;22.66;43.12;102692.88;5051127;28;20032;-55
2021/06/13 05:18:37;;;;;;;4.43;2.50;;;;;;;22.67;43.15;102693.72;5052249;28;20389;-55
2021/06/13 05:21:03;;;;;;;6.40;2.50;;;;;;;22.67;43.03;102699.91;5052222;28;20024;-56
2021/06/13 05:23:29;;;;;;;6.22;2.72;;;;;;;22.67;43.22;102701.69;5051183;28;20078;-55
2021/06/13 05:26:00;;;;;;;5.90;2.35;;;;;;;22.69;43.14;102697.13;5051920;28;20025;-56
2021/06/13 05:28:26;;;;;;;5.43;2.72;;;;;;;22.69;43.20;102705.09;5051956;28;20025;-55
2021/06/13 05:30:52;;;;;;;5.47;2.63;;;;;;;22.69;43.12;102702.44;5051615;28;20052;-54
2021/06/13 05:33:17;;;;;;;5.07;2.83;;;;;;;22.69;43.14;102711.25;5051799;28;20477;-56
2021/06/13 05:35:43;;;;;;;4.90;2.47;;;;;;;22.70;43.26;102712.09;5052161;28;20100;-55
2021/06/13 05:38:09;;;;;;;4.78;2.70;;;;;;;22.70;43.11;102715.63;5051079;28;20072;-57
2021/06/13 05:40:36;;;;;;;4.53;2.50;;;;;;;22.71;43.26;102713.81;5051839;28;20021;-58
2021/06/13 05:43:09;;;;;;;5.45;2.70;;;;;;;22.71;43.27;102714.66;5051070;28;20021;-56
2021/06/13 05:45:38;;;;;;;5.50;2.63;;;;;;;22.69;43.24;102713.91;5051675;28;20028;-56
2021/06/13 05:48:04;;;;;;;6.63;2.85;;;;;;;22.72;43.26;102726.16;5051450;28;20521;-57
2021/06/13 05:50:31;;;;;;;5.18;2.47;;;;;;;22.73;43.35;102725.16;5050990;28;20029;-57
2021/06/13 05:52:59;;;;;;;4.78;2.60;;;;;;;22.73;43.35;102723.38;5051775;28;20021;-57
2021/06/13 05:55:25;;;;;;;4.90;2.50;;;;;;;22.72;43.55;102726.97;5051629;28;20139;-56
2021/06/13 05:57:50;;;;;;;5.00;2.42;;;;;;;22.73;43.13;102728.69;5050970;28;20027;-55
2021/06/13 06:00:36;;;;;;;6.47;2.63;;;;;;;22.73;43.35;102725.16;5051189;28;20032;-57
2021/06/13 06:03:03;;;;;;;6.38;2.80;;;;;;;22.74;43.45;102735.69;5051566;28;20033;-55
2021/06/13 06:05:29;;;;;;;4.68;2.55;;;;;;;22.74;43.35;102740.16;5050985;28;20321;-58
2021/06/13 06:07:54;;;;;;;7.40;2.80;;;;;;;22.74;43.31;102741.00;5051525;28;20094;-55
2021/06/13 06:10:22;;;;;;;6.35;2.42;;;;;;;22.74;43.38;102738.34;5051303;28;20025;-57
2021/06/13 06:12:48;;;;;;;6.55;2.50;;;;;;;22.75;43.60;102739.22;5050693;28;20029;-57
2021/06/13 06:15:17;;;;;;;6.22;3.03;;;;;;;22.75;43.37;102737.41;5051023;28;20045;-55
2021/06/13 06:17:43;;;;;;;6.18;2.70;;;;;;;22.76;43.57;102743.56;5051299;28;20025;-56
2021/06/13 06:20:11;;;;;;;6.50;2.97;;;;;;;22.75;43.64;102734.75;5050458;28;20039;-56
2021/06/13 06:22:36;;;;;;;5.97;2.53;;;;;;;22.77;43.43;102734.63;5054245;28;20040;-56
2021/06/13 06:25:03;;;;;;;4.85;2.58;;;;;;;22.77;43.58;102737.28;5054567;28;20021;-56
2021/06/13 06:27:28;;;;;;;4.90;2.75;;;;;;;22.76;43.48;102739.06;5055339;28;20036;-56
2021/06/13 06:29:54;;;;;;;6.07;2.75;;;;;;;22.76;43.55;102738.25;5054258;28;20113;-57
2021/06/13 06:32:19;;;;;;;5.28;2.25;;;;;;;22.76;43.49;102749.72;5053695;28;20036;-57
2021/06/13 06:34:45;;;;;;;6.25;2.65;;;;;;;22.78;43.49;102757.56;5054995;28;20028;-55
2021/06/13 06:37:10;;;;;;;5.45;3.28;;;;;;;22.78;43.43;102763.75;5054549;28;20097;-57
2021/06/13 06:39:42;;;;;;;6.93;3.15;;;;;;;22.75;42.01;102768.44;5053979;28;20066;-57
2021/06/13 06:42:09;;;;;;;10.45;4.20;;;;;;;22.61;40.02;102767.59;5054623;28;20108;-55
2021/06/13 06:44:35;;;;;;;8.52;3.72;;;;;;;22.41;39.51;102761.03;5054874;28;20075;-63
2021/06/13 06:47:02;;;;;;;7.53;3.67;;;;;;;22.27;40.09;102772.59;5054089;28;20029;-59
2021/06/13 06:49:29;;;;;;;7.10;3.60;;;;;;;22.12;39.92;102772.78;5054793;28;20017;-58
2021/06/13 06:51:54;;;;;;;10.43;4.10;;;;;;;21.98;40.11;102774.56;5054580;28;20027;-59
2021/06/13 06:54:19;;;;;;;7.20;3.50;;;;;;;21.86;40.56;102772.75;5053618;28;20017;-58
2021/06/13 06:56:45;;;;;;;8.10;3.30;;;;;;;21.76;40.55;102772.50;5054756;28;20029;-59
2021/06/13 06:59:10;;;;;;;9.25;3.42;;;;;;;21.70;40.94;102775.59;5054040;28;20361;-58
2021/06/13 07:01:37;;;;;;;10.47;3.80;;;;;;;21.76;41.07;102779.63;5053753;28;20025;-58
2021/06/13 07:04:03;;;;;;;8.10;3.42;;;;;;;21.81;41.25;102773.06;5054088;28;20270;-56
2021/06/13 07:06:28;;;;;;;8.07;3.55;;;;;;;21.87;41.34;102772.66;5054416;28;20025;-57
2021/06/13 07:08:59;;;;;;;9.07;3.53;;;;;;;21.94;41.20;102775.75;5055652;28;20029;-59
2021/06/13 07:11:25;;;;;;;10.00;3.90;;;;;;;21.95;40.56;102782.72;5054626;28;20040;-59
2021/06/13 07:13:50;;;;;;;9.45;4.18;;;;;;;21.83;40.70;102772.97;5054010;28;20104;-59
2021/06/13 07:16:16;;;;;;;10.60;4.18;;;;;;;21.75;40.26;102789.38;5054057;28;20518;-59
2021/06/13 07:18:41;;;;;;;7.25;3.92;;;;;;;21.65;40.80;102793.59;5054484;28;20021;-59
2021/06/13 07:21:06;;;;;;;8.50;3.90;;;;;;;21.49;40.56;102789.31;5053768;28;20025;-58
2021/06/13 07:23:32;;;;;;;11.43;3.67;;;;;;;21.37;41.06;102793.56;5057757;28;20025;-58
2021/06/13 07:25:58;;;;;;;9.02;3.53;;;;;;;21.22;40.78;102780.44;5054078;28;20033;-58
2021/06/13 07:28:23;;;;;;;7.75;3.90;;;;;;;21.14;41.45;102781.78;5053508;28;20029;-58
2021/06/13 07:30:48;;;;;;;10.60;3.88;;;;;;;21.11;41.37;102781.13;5053959;28;20095;-59
2021/06/13 07:33:14;;;;;;;10.43;4.63;;;;;;;21.10;41.72;102779.44;5052976;28;20068;-58
2021/06/13 07:35:46;;;;;;;9.73;4.63;;;;;;;21.10;41.19;102779.44;5053157;28;20381;-59
2021/06/13 07:38:12;;;;;;;9.90;4.05;;;;;;;21.09;40.94;102788.31;5053621;28;20025;-59
2021/06/13 07:40:40;;;;;;;11.13;3.95;;;;;;;21.01;41.13;102783.50;5054044;28;20021;-59
2021/06/13 07:43:05;;;;;;;7.18;3.25;;;;;;;21.04;40.35;102793.91;5052828;28;20342;-59
2021/06/13 07:45:30;;;;;;;8.27;3.63;;;;;;;21.00;40.78;102784.47;5054255;28;20107;-59
2021/06/13 07:47:56;;;;;;;8.88;4.15;;;;;;;20.96;41.08;102790.91;5053802;28;20086;-59
2021/06/13 07:50:21;;;;;;;7.13;3.45;;;;;;;20.91;41.44;102793.00;5052643;28;20040;-59
2021/06/13 07:52:48;;;;;;;7.50;3.42;;;;;;;20.87;41.07;102787.03;5053706;28;20473;-60
2021/06/13 07:55:15;;;;;;;7.18;3.50;;;;;;;20.86;40.95;102787.13;5053655;28;20033;-60
2021/06/13 07:57:42;;;;;;;8.27;3.60;;;;;;;20.86;40.95;102795.09;5053336;28;20080;-60
2021/06/13 08:00:09;;;;;;;8.93;3.20;;;;;;;20.84;40.95;102792.53;5053510;28;20059;-57
2021/06/13 08:02:39;;;;;;;8.07;3.30;;;;;;;20.86;41.02;102795.09;5053691;28;20071;-57
2021/06/13 08:05:13;;;;;;;8.23;3.50;;;;;;;20.86;40.89;102800.38;5052545;28;20025;-57
2021/06/13 08:07:39;;;;;;;7.55;3.20;;;;;;;20.88;40.45;102794.03;5053904;28;20099;-58
2021/06/13 08:10:06;;;;;;;6.78;3.15;;;;;;;20.91;40.21;102791.19;5053315;28;20040;-57
2021/06/13 08:12:32;;;;;;;6.47;2.97;;;;;;;20.90;39.92;102793.94;5052721;28;20096;-58
2021/06/13 08:14:57;;;;;;;6.13;3.30;;;;;;;20.90;39.76;102788.63;5053420;28;20523;-57
2021/06/13 08:17:25;;;;;;;6.93;3.13;;;;;;;20.88;39.97;102786.06;5053138;28;20029;-57
2021/06/13 08:19:51;;;;;;;7.68;3.40;;;;;;;20.87;40.68;102789.69;5052626;28;20039;-58
2021/06/13 08:22:17;;;;;;;7.40;3.30;;;;;;;20.89;40.66;102794.91;5053187;28;20028;-59
2021/06/13 08:24:42;;;;;;;8.57;3.55;;;;;;;20.90;40.39;102801.88;5052882;28;20540;-58
2021/06/13 08:27:08;;;;;;;8.27;3.20;;;;;;;20.90;40.46;102794.78;5052905;28;20098;-57
2021/06/13 08:29:33;;;;;;;6.82;3.25;;;;;;;20.94;40.27;102796.28;5053405;28;20464;-58
2021/06/13 08:31:58;;;;;;;8.02;3.63;;;;;;;21.02;40.93;102799.31;5052952;28;20944;-60
2021/06/13 08:34:25;;;;;;;7.95;3.20;;;;;;;21.07;40.61;102798.19;5052841;28;20063;-61
2021/06/13 08:36:51;;;;;;;6.82;3.42;;;;;;;21.07;40.80;102798.19;5053202;28;20036;-60
2021/06/13 08:39:16;;;;;;;9.07;3.92;;;;;;;21.09;41.00;102794.47;5052291;28;20025;-59
2021/06/13 08:41:41;;;;;;;8.77;3.55;;;;;;;21.10;41.09;102790.88;5052938;28;20384;-59
2021/06/13 08:44:07;;;;;;;8.02;3.00;;;;;;;21.15;40.78;102787.94;5052703;28;20104;-62
2021/06/13 08:46:36;;;;;;;6.93;3.03;;;;;;;21.18;40.25;102793.88;5052335;28;20139;-60
2021/06/13 08:49:02;;;;;;;8.32;3.30;;;;;;;21.18;40.12;102790.38;5052677;28;20025;-59
2021/06/13 08:51:28;;;;;;;8.90;3.42;;;;;;;21.19;40.28;102794.75;5052966;28;20091;-59
2021/06/13 08:53:53;;;;;;;8.65;3.22;;;;;;;21.18;39.97;102788.59;5051941;28;20056;-58
2021/06/13 08:56:20;;;;;;;8.82;3.40;;;;;;;21.20;39.45;102794.66;5052600;28;20028;-58
2021/06/13 08:58:49;;;;;;;9.77;3.90;;;;;;;21.21;39.29;102792.84;5053069;28;20021;-58
2021/06/13 09:01:15;;;;;;;8.57;3.35;;;;;;;21.19;40.74;102790.28;5051737;28;20052;-60
2021/06/13 09:03:43;;;;;;;9.05;3.13;;;;;;;21.20;40.41;102788.47;5052860;28;20028;-57
2021/06/13 09:06:09;;;;;;;7.15;3.47;;;;;;;21.23;40.05;102793.59;5052405;28;20039;-59
2021/06/13 09:08:40;;;;;;;7.70;3.33;;;;;;;21.22;39.94;102786.59;5052113;28;20021;-58
2021/06/13 09:11:07;;;;;;;8.32;3.22;;;;;;;21.30;39.92;102792.25;5052677;28;20033;-59
2021/06/13 09:13:36;;;;;;;9.35;3.55;;;;;;;21.36;39.95;102789.22;5053103;28;20024;-60
2021/06/13 09:16:06;;;;;;;10.40;3.10;;;;;;;21.40;40.36;102789.03;5054220;28;20048;-61
2021/06/13 09:18:42;;;;;;;7.32;3.13;;;;;;;21.41;39.85;102788.91;5056758;28;20026;-57
2021/06/13 09:21:13;;;;;;;7.72;3.33;;;;;;;21.43;39.69;102789.66;5052042;28;20078;-61
2021/06/13 09:24:01;;;;;;;9.55;3.22;;;;;;;21.45;39.23;102795.72;5061734;28;20048;-58
2021/06/13 09:26:34;;;;;;;6.18;2.85;;;;;;;21.47;39.48;102796.47;5053694;28;20033;-60
2021/06/13 09:28:59;;;;;;;10.00;3.05;;;;;;;21.43;39.13;102787.03;5054169;28;20021;-60
2021/06/13 09:31:27;;;;;;;9.85;3.30;;;;;;;21.41;39.85;102783.59;5052481;28;20056;-57
2021/06/13 09:33:55;;;;;;;8.93;3.08;;;;;;;21.41;39.47;102794.19;5052587;28;20110;-58
2021/06/13 09:36:26;;;;;;;6.75;2.90;;;;;;;21.41;39.59;102794.19;5051211;28;20547;-60
2021/06/13 09:39:06;;;;;;;6.18;2.72;;;;;;;21.42;39.80;102795.91;5052851;28;20025;-57
2021/06/13 09:41:34;;;;;;;9.02;3.50;;;;;;;21.44;39.43;102793.16;5052591;28;20044;-57
2021/06/13 09:44:03;;;;;;;8.18;4.50;;;;;;;21.49;39.52;102805.22;5051548;28;20029;-58
2021/06/13 09:46:31;;;;;;;9.15;5.38;;;;;;;21.53;39.42;102803.22;5052033;28;20675;-58
2021/06/13 09:49:07;;;;;;;9.10;4.70;;;;;;;21.58;39.29;102801.09;5052081;28;20052;-58
2021/06/13 09:51:35;;;;;;;7.90;3.83;;;;;;;21.61;38.74;102805.38;5034059;28;20029;-58
2021/06/13 09:54:05;;;;;;;7.60;3.35;;;;;;;21.62;38.58;102802.63;5051686;28;20061;-57
2021/06/13 09:56:32;;;;;;;8.63;3.20;;;;;;;21.66;38.26;102805.91;5052470;28;20047;-58
2021/06/13 09:59:10;;;;;;;7.80;3.15;;;;;;;21.66;38.55;102798.78;5055765;28;20067;-58
2021/06/13 10:01:40;;;;;;;7.88;3.08;;;;;;;21.74;38.77;102795.63;5055901;28;20100;-59
2021/06/13 10:04:32;;;;;;;6.70;3.10;;;;;;;21.80;38.67;102795.22;5054605;28;20417;-59
2021/06/13 10:07:15;;;;;;;7.38;3.08;;;;;;;21.85;38.53;102800.25;5055746;28;20029;-58
2021/06/13 10:09:44;;;;;;;6.40;3.07;;;;;;;21.87;38.19;102793.88;5055660;28;20032;-58
2021/06/13 10:12:11;;;;;;;7.88;3.47;;;;;;;21.90;38.29;102800.78;5054616;28;20491;-59
2021/06/13 10:14:37;;;;;;;5.97;2.72;;;;;;;21.90;38.12;102793.69;5037256;28;20369;-59
2021/06/13 10:17:03;;;;;;;9.13;3.13;;;;;;;21.87;38.07;102790.34;5055443;28;20025;-60
2021/06/13 10:19:46;;;;;;;7.70;2.90;;;;;;;21.90;38.18;102791.03;5054858;28;20485;-58
2021/06/13 10:22:17;;;;;;;7.88;3.35;;;;;;;21.90;38.40;102791.03;5055047;28;20377;-57
2021/06/13 10:24:43;;;;;;;7.05;2.80;;;;;;;21.95;38.54;102784.53;5054469;28;20033;-57
2021/06/13 10:27:14;;;;;;;6.75;2.70;;;;;;;21.99;38.57;102800.16;5055187;28;20048;-56
2021/06/13 10:29:42;;;;;;;7.78;3.15;;;;;;;22.04;38.75;102797.19;5055339;28;20021;-56
2021/06/13 10:32:09;;;;;;;5.40;2.63;;;;;;;22.07;38.78;102787.22;5053935;28;20392;-56
2021/06/13 10:34:34;;;;;;;8.07;2.47;;;;;;;22.11;38.89;102782.53;5055070;28;20021;-57
2021/06/13 10:37:03;;;;;;;10.32;2.95;;;;;;;22.15;39.20;102784.03;5054985;28;20099;-56
2021/06/13 10:39:30;;;;;;;5.88;2.50;;;;;;;22.18;39.06;102781.19;5054181;28;20099;-57
2021/06/13 10:41:56;;;;;;;5.05;2.28;;;;;;;22.19;39.05;102780.25;5055024;28;20116;-56
2021/06/13 10:44:24;;;;;;;7.85;2.75;;;;;;;22.21;39.24;102770.34;5054772;28;20512;-56
2021/06/13 10:46:55;;;;;;;5.88;2.78;;;;;;;22.22;39.16;102772.06;5054097;28;20109;-57
2021/06/13 10:49:38;;;;;;;6.07;2.67;;;;;;;22.26;39.22;102764.72;5055232;28;20021;-57
2021/06/13 10:52:14;;;;;;;6.53;2.80;;;;;;;22.27;39.29;102761.09;5054538;28;20086;-56
2021/06/13 10:54:49;;;;;;;6.40;2.40;;;;;;;22.29;39.31;102767.16;5054140;28;20177;-56
2021/06/13 10:57:14;;;;;;;7.10;2.70;;;;;;;22.31;39.30;102761.78;5054444;28;20036;-56
2021/06/13 10:59:41;;;;;;;6.47;2.77;;;;;;;22.31;39.46;102761.78;5053946;28;20033;-57
2021/06/13 11:02:17;;;;;;;6.30;2.42;;;;;;;22.34;39.50;102766.88;5054132;28;20761;-57
2021/06/13 11:04:51;;;;;;;6.05;2.60;;;;;;;22.33;39.79;102758.03;5054870;28;20036;-57
2021/06/13 11:07:29;;;;;;;5.82;2.75;;;;;;;22.35;39.83;102760.59;5052964;28;20029;-56
2021/06/13 11:12:51;;;;;;;7.57;2.92;;;;;;;22.37;39.75;102764.03;5054384;28;20079;-56
2021/06/13 11:15:39;;;;;;;7.07;2.92;;;;;;;22.37;39.84;102764.84;5053162;28;20479;-56
2021/06/13 11:18:07;;;;;;;6.70;2.50;;;;;;;22.39;39.90;102756.78;5053800;28;20029;-56
2021/06/13 11:20:50;;;;;;;5.85;2.80;;;;;;;22.39;40.01;102759.44;5053645;28;20047;-57
2021/06/13 11:23:21;;;;;;;6.28;2.40;;;;;;;22.40;39.93;102758.50;5053860;28;20052;-57
2021/06/13 11:25:47;;;;;;;6.78;2.90;;;;;;;22.40;39.90;102747.88;5054209;28;20056;-56
2021/06/13 11:28:30;;;;;;;6.45;2.53;;;;;;;22.40;39.84;102750.53;5052990;28;20126;-56
2021/06/13 11:30:58;;;;;;;6.80;2.60;;;;;;;22.41;39.99;102736.28;5054251;28;20017;-57
2021/06/13 11:33:55;;;;;;;5.95;2.40;;;;;;;22.41;40.15;102744.25;5053426;28;20044;-56